Loup City, Nebraska
Current Conditions -  °F | °C
As of 2:53 PM on Saturday 25 Oct 2014 (Local Time) from KODX Reporting Station
Clear Clear  
Wind Chill: 70°   Ceiling: Unl
Heat Index: 70°   Visibility: 10mi
Dew Point: 39°   Wind: 10mph
Humidity: 32%   Direction: 110°ESE
Pressure: 30.06"   Gusts: NA
Location:  41.28°N, 98.97°W
Report Text: KODX 251953Z AUTO 11009KT 10SM CLR 21/04 A3006 RMK AO2 SLP181 T02110039
Loading
Personal Weather Stations






























Interactive Weather Map
Tropical Storm Tracking
New forecast layout! Learn more

10-Day Weather Forecast

Advertisements
Track Severe Weather on mobile